sensor_id;sensor_type;location;lat;lon;timestamp;pressure;altitude;pressure_sealevel;temperature;humidity
54808;BME280;40708;50.364;7.550;2023-06-22T00:02:12;101358.00;;;22.65;100.00
54808;BME280;40708;50.364;7.550;2023-06-22T00:04:37;101315.66;;;22.64;100.00
54808;BME280;40708;50.364;7.550;2023-06-22T00:07:03;101322.84;;;22.65;100.00
54808;BME280;40708;50.364;7.550;2023-06-22T00:09:28;101351.78;;;22.62;100.00
54808;BME280;40708;50.364;7.550;2023-06-22T00:11:53;101331.03;;;22.62;100.00
54808;BME280;40708;50.364;7.550;2023-06-22T00:14:19;101406.94;;;22.58;100.00
54808;BME280;40708;50.364;7.550;2023-06-22T00:16:44;101432.38;;;22.52;100.00
54808;BME280;40708;50.364;7.550;2023-06-22T00:19:13;101516.56;;;22.40;100.00
54808;BME280;40708;50.364;7.550;2023-06-22T00:21:38;101541.97;;;22.36;100.00
54808;BME280;40708;50.364;7.550;2023-06-22T00:24:04;101554.75;;;22.29;100.00
54808;BME280;40708;50.364;7.550;2023-06-22T00:26:29;101535.94;;;22.26;100.00
54808;BME280;40708;50.364;7.550;2023-06-22T00:28:55;101535.97;;;22.25;100.00
54808;BME280;40708;50.364;7.550;2023-06-22T00:31:20;101506.50;;;22.17;100.00
54808;BME280;40708;50.364;7.550;2023-06-22T00:33:45;101462.03;;;22.26;100.00
54808;BME280;40708;50.364;7.550;2023-06-22T00:36:10;101452.03;;;22.29;100.00
54808;BME280;40708;50.364;7.550;2023-06-22T00:38:38;101413.16;;;22.33;100.00
54808;BME280;40708;50.364;7.550;2023-06-22T00:41:05;101395.00;;;22.37;100.00
54808;BME280;40708;50.364;7.550;2023-06-22T00:43:30;101383.25;;;22.38;100.00
54808;BME280;40708;50.364;7.550;2023-06-22T00:45:56;101305.47;;;22.46;100.00
54808;BME280;40708;50.364;7.550;2023-06-22T00:48:22;101300.72;;;22.52;100.00
54808;BME280;40708;50.364;7.550;2023-06-22T00:50:47;101307.88;;;22.53;100.00
54808;BME280;40708;50.364;7.550;2023-06-22T00:53:15;101324.34;;;22.47;100.00
54808;BME280;40708;50.364;7.550;2023-06-22T00:55:44;101319.91;;;22.45;100.00
54808;BME280;40708;50.364;7.550;2023-06-22T00:58:12;101312.69;;;22.45;100.00
54808;BME280;40708;50.364;7.550;2023-06-22T01:00:39;101329.00;;;22.42;100.00
54808;BME280;40708;50.364;7.550;2023-06-22T01:03:04;101290.22;;;22.43;100.00
54808;BME280;40708;50.364;7.550;2023-06-22T01:05:34;101301.03;;;22.43;100.00
54808;BME280;40708;50.364;7.550;2023-06-22T01:13:41;101349.28;;;22.29;100.00
54808;BME280;40708;50.364;7.550;2023-06-22T01:16:17;101340.34;;;22.27;100.00
54808;BME280;40708;50.364;7.550;2023-06-22T01:18:44;101315.31;;;22.22;100.00
54808;BME280;40708;50.364;7.550;2023-06-22T01:21:14;101404.63;;;22.18;100.00
54808;BME280;40708;50.364;7.550;2023-06-22T01:24:25;101462.38;;;22.15;100.00
54808;BME280;40708;50.364;7.550;2023-06-22T01:26:43;101489.53;;;22.12;100.00
54808;BME280;40708;50.364;7.550;2023-06-22T01:29:13;101501.34;;;22.08;100.00
54808;BME280;40708;50.364;7.550;2023-06-22T01:31:40;101533.84;;;22.07;100.00
54808;BME280;40708;50.364;7.550;2023-06-22T01:34:08;101510.53;;;22.03;100.00
54808;BME280;40708;50.364;7.550;2023-06-22T01:36:35;101538.00;;;21.87;100.00
54808;BME280;40708;50.364;7.550;2023-06-22T01:39:02;101566.09;;;21.80;100.00
54808;BME280;40708;50.364;7.550;2023-06-22T01:41:29;101597.75;;;21.75;100.00
54808;BME280;40708;50.364;7.550;2023-06-22T01:43:56;101606.88;;;21.71;100.00
54808;BME280;40708;50.364;7.550;2023-06-22T01:46:22;101636.69;;;21.67;100.00
54808;BME280;40708;50.364;7.550;2023-06-22T01:48:48;101632.25;;;21.64;100.00
54808;BME280;40708;50.364;7.550;2023-06-22T01:51:15;101668.38;;;21.60;100.00
54808;BME280;40708;50.364;7.550;2023-06-22T01:53:40;101690.84;;;21.61;100.00
54808;BME280;40708;50.364;7.550;2023-06-22T01:56:06;101698.16;;;21.57;100.00
54808;BME280;40708;50.364;7.550;2023-06-22T01:58:32;101725.28;;;21.53;100.00
54808;BME280;40708;50.364;7.550;2023-06-22T02:01:20;101746.88;;;21.53;100.00
54808;BME280;40708;50.364;7.550;2023-06-22T02:04:01;101723.50;;;21.52;100.00
54808;BME280;40708;50.364;7.550;2023-06-22T02:06:33;101682.94;;;21.53;100.00
54808;BME280;40708;50.364;7.550;2023-06-22T02:09:07;101630.66;;;21.57;100.00
54808;BME280;40708;50.364;7.550;2023-06-22T02:11:34;101614.38;;;21.60;100.00
54808;BME280;40708;50.364;7.550;2023-06-22T02:14:00;101625.13;;;21.62;100.00
54808;BME280;40708;50.364;7.550;2023-06-22T02:16:26;101628.84;;;21.58;100.00
54808;BME280;40708;50.364;7.550;2023-06-22T02:18:55;101643.25;;;21.57;100.00
54808;BME280;40708;50.364;7.550;2023-06-22T02:21:20;101636.06;;;21.56;100.00
54808;BME280;40708;50.364;7.550;2023-06-22T02:23:46;101701.94;;;21.50;100.00
54808;BME280;40708;50.364;7.550;2023-06-22T02:26:11;101711.97;;;21.45;100.00
54808;BME280;40708;50.364;7.550;2023-06-22T02:28:37;101799.53;;;21.33;100.00
54808;BME280;40708;50.364;7.550;2023-06-22T02:31:03;101823.09;;;21.27;100.00
54808;BME280;40708;50.364;7.550;2023-06-22T02:33:28;101847.44;;;21.24;100.00
54808;BME280;40708;50.364;7.550;2023-06-22T02:35:53;101828.66;;;21.19;100.00
54808;BME280;40708;50.364;7.550;2023-06-22T02:38:19;101862.06;;;21.14;100.00
54808;BME280;40708;50.364;7.550;2023-06-22T02:40:45;101864.84;;;21.09;100.00
54808;BME280;40708;50.364;7.550;2023-06-22T02:43:10;101868.47;;;21.08;100.00
54808;BME280;40708;50.364;7.550;2023-06-22T02:45:35;101900.88;;;21.04;100.00
54808;BME280;40708;50.364;7.550;2023-06-22T02:48:01;101935.19;;;20.99;100.00
54808;BME280;40708;50.364;7.550;2023-06-22T02:50:26;101992.84;;;20.95;100.00
54808;BME280;40708;50.364;7.550;2023-06-22T02:52:51;102027.16;;;20.87;100.00
54808;BME280;40708;50.364;7.550;2023-06-22T02:55:17;102047.84;;;20.86;100.00
54808;BME280;40708;50.364;7.550;2023-06-22T02:57:42;102037.94;;;20.85;100.00
54808;BME280;40708;50.364;7.550;2023-06-22T03:00:10;102047.03;;;20.81;100.00
54808;BME280;40708;50.364;7.550;2023-06-22T03:02:46;102047.97;;;20.77;100.00
54808;BME280;40708;50.364;7.550;2023-06-22T03:05:12;102039.88;;;20.77;100.00
54808;BME280;40708;50.364;7.550;2023-06-22T03:07:43;102042.66;;;20.71;100.00
54808;BME280;40708;50.364;7.550;2023-06-22T03:10:09;102083.13;;;20.71;100.00
54808;BME280;40708;50.364;7.550;2023-06-22T03:12:35;102079.56;;;20.69;100.00
54808;BME280;40708;50.364;7.550;2023-06-22T03:15:00;102085.91;;;20.68;100.00
54808;BME280;40708;50.364;7.550;2023-06-22T03:17:25;102107.47;;;20.66;100.00
54808;BME280;40708;50.364;7.550;2023-06-22T03:19:51;102088.59;;;20.66;100.00
54808;BME280;40708;50.364;7.550;2023-06-22T03:22:16;102101.19;;;20.67;100.00
54808;BME280;40708;50.364;7.550;2023-06-22T03:24:41;102088.59;;;20.66;100.00
54808;BME280;40708;50.364;7.550;2023-06-22T03:27:06;102099.38;;;20.66;100.00
54808;BME280;40708;50.364;7.550;2023-06-22T03:29:32;102090.44;;;20.63;100.00
54808;BME280;40708;50.364;7.550;2023-06-22T03:31:57;102117.44;;;20.61;100.00
54808;BME280;40708;50.364;7.550;2023-06-22T03:34:22;102129.22;;;20.56;100.00
54808;BME280;40708;50.364;7.550;2023-06-22T03:36:48;102118.44;;;20.56;100.00
54808;BME280;40708;50.364;7.550;2023-06-22T03:39:13;102132.81;;;20.55;100.00
54808;BME280;40708;50.364;7.550;2023-06-22T03:41:38;102160.72;;;20.54;100.00
54808;BME280;40708;50.364;7.550;2023-06-22T03:44:04;102174.16;;;20.55;100.00
54808;BME280;40708;50.364;7.550;2023-06-22T03:46:29;102150.78;;;20.56;100.00
54808;BME280;40708;50.364;7.550;2023-06-22T03:48:55;102143.59;;;20.56;100.00
54808;BME280;40708;50.364;7.550;2023-06-22T03:51:20;102139.97;;;20.57;100.00
54808;BME280;40708;50.364;7.550;2023-06-22T03:53:46;102169.59;;;20.62;100.00
54808;BME280;40708;50.364;7.550;2023-06-22T03:56:11;102188.44;;;20.63;100.00
54808;BME280;40708;50.364;7.550;2023-06-22T03:58:36;102219.81;;;20.69;100.00
54808;BME280;40708;50.364;7.550;2023-06-22T04:01:07;102222.50;;;20.72;100.00
54808;BME280;40708;50.364;7.550;2023-06-22T04:03:36;102222.50;;;20.73;100.00
54808;BME280;40708;50.364;7.550;2023-06-22T04:06:01;102215.28;;;20.72;100.00
54808;BME280;40708;50.364;7.550;2023-06-22T04:08:27;102216.19;;;20.71;100.00
54808;BME280;40708;50.364;7.550;2023-06-22T04:10:52;102227.88;;;20.72;100.00
54808;BME280;40708;50.364;7.550;2023-06-22T04:13:17;102211.66;;;20.75;100.00
54808;BME280;40708;50.364;7.550;2023-06-22T04:15:43;102213.38;;;20.79;100.00
54808;BME280;40708;50.364;7.550;2023-06-22T04:18:08;102221.47;;;20.79;100.00
54808;BME280;40708;50.364;7.550;2023-06-22T04:20:33;102227.78;;;20.81;100.00
54808;BME280;40708;50.364;7.550;2023-06-22T04:22:58;102223.25;;;20.83;100.00
54808;BME280;40708;50.364;7.550;2023-06-22T04:25:24;102234.91;;;20.85;100.00
54808;BME280;40708;50.364;7.550;2023-06-22T04:27:49;102242.06;;;20.88;100.00
54808;BME280;40708;50.364;7.550;2023-06-22T04:30:15;102247.41;;;20.91;100.00
54808;BME280;40708;50.364;7.550;2023-06-22T04:32:41;102236.56;;;20.94;100.00
54808;BME280;40708;50.364;7.550;2023-06-22T04:35:07;102236.50;;;21.00;100.00
54808;BME280;40708;50.364;7.550;2023-06-22T04:37:33;102233.69;;;21.10;100.00
54808;BME280;40708;50.364;7.550;2023-06-22T04:39:58;102196.78;;;21.11;100.00
54808;BME280;40708;50.364;7.550;2023-06-22T04:42:26;102163.41;;;21.16;100.00
54808;BME280;40708;50.364;7.550;2023-06-22T04:44:51;102122.78;;;21.24;100.00
54808;BME280;40708;50.364;7.550;2023-06-22T04:47:17;102085.72;;;21.33;100.00
54808;BME280;40708;50.364;7.550;2023-06-22T04:49:42;102030.78;;;21.36;100.00
54808;BME280;40708;50.364;7.550;2023-06-22T04:52:10;101995.47;;;21.47;100.00
54808;BME280;40708;50.364;7.550;2023-06-22T04:54:37;101937.81;;;21.48;100.00
54808;BME280;40708;50.364;7.550;2023-06-22T04:57:05;101903.25;;;21.65;100.00
54808;BME280;40708;50.364;7.550;2023-06-22T04:59:36;101851.63;;;21.77;100.00
54808;BME280;40708;50.364;7.550;2023-06-22T05:02:04;101827.69;;;22.00;100.00
54808;BME280;40708;50.364;7.550;2023-06-22T05:04:31;101753.53;;;22.12;100.00
54808;BME280;40708;50.364;7.550;2023-06-22T05:06:58;101662.59;;;22.09;100.00
54808;BME280;40708;50.364;7.550;2023-06-22T05:09:23;101626.00;;;22.28;100.00
54808;BME280;40708;50.364;7.550;2023-06-22T05:11:50;101587.34;;;22.54;100.00
54808;BME280;40708;50.364;7.550;2023-06-22T05:14:16;101505.88;;;22.66;100.00
54808;BME280;40708;50.364;7.550;2023-06-22T05:16:43;101459.88;;;22.92;100.00
54808;BME280;40708;50.364;7.550;2023-06-22T05:19:08;101374.19;;;23.16;100.00
54808;BME280;40708;50.364;7.550;2023-06-22T05:21:34;101340.13;;;23.58;100.00
54808;BME280;40708;50.364;7.550;2023-06-22T05:23:59;101200.75;;;23.87;100.00
54808;BME280;40708;50.364;7.550;2023-06-22T05:26:26;101136.75;;;24.05;100.00
54808;BME280;40708;50.364;7.550;2023-06-22T05:28:52;101101.00;;;24.36;100.00
54808;BME280;40708;50.364;7.550;2023-06-22T05:31:18;101006.75;;;24.41;100.00
54808;BME280;40708;50.364;7.550;2023-06-22T05:33:48;100955.56;;;24.52;100.00
54808;BME280;40708;50.364;7.550;2023-06-22T05:36:14;100943.94;;;24.50;100.00
54808;BME280;40708;50.364;7.550;2023-06-22T05:38:39;100930.41;;;24.67;100.00
54808;BME280;40708;50.364;7.550;2023-06-22T05:41:05;100917.16;;;24.61;100.00
54808;BME280;40708;50.364;7.550;2023-06-22T05:43:31;100901.50;;;24.66;100.00
54808;BME280;40708;50.364;7.550;2023-06-22T05:45:57;100908.44;;;24.90;100.00
54808;BME280;40708;50.364;7.550;2023-06-22T05:48:22;100877.38;;;24.96;100.00
54808;BME280;40708;50.364;7.550;2023-06-22T05:50:48;100885.06;;;25.22;100.00
54808;BME280;40708;50.364;7.550;2023-06-22T05:53:13;100830.88;;;25.69;100.00
54808;BME280;40708;50.364;7.550;2023-06-22T05:55:39;100734.63;;;26.20;100.00
54808;BME280;40708;50.364;7.550;2023-06-22T05:58:04;100675.16;;;26.72;100.00
54808;BME280;40708;50.364;7.550;2023-06-22T06:00:30;100632.72;;;26.83;100.00
54808;BME280;40708;50.364;7.550;2023-06-22T06:02:55;100608.75;;;27.45;100.00
54808;BME280;40708;50.364;7.550;2023-06-22T06:05:21;100568.63;;;27.86;100.00
54808;BME280;40708;50.364;7.550;2023-06-22T06:07:46;100537.94;;;28.22;100.00
54808;BME280;40708;50.364;7.550;2023-06-22T06:10:12;100513.94;;;28.40;100.00
54808;BME280;40708;50.364;7.550;2023-06-22T06:12:37;100525.41;;;28.07;100.00
54808;BME280;40708;50.364;7.550;2023-06-22T06:15:03;100533.44;;;27.96;100.00
54808;BME280;40708;50.364;7.550;2023-06-22T06:17:29;100548.22;;;27.79;100.00
54808;BME280;40708;50.364;7.550;2023-06-22T06:19:54;100534.13;;;27.72;100.00
54808;BME280;40708;50.364;7.550;2023-06-22T06:22:19;100527.50;;;27.76;100.00
54808;BME280;40708;50.364;7.550;2023-06-22T06:24:47;100532.13;;;28.01;100.00
54808;BME280;40708;50.364;7.550;2023-06-22T06:27:13;100499.06;;;28.44;100.00
54808;BME280;40708;50.364;7.550;2023-06-22T06:29:39;100500.63;;;28.22;100.00
54808;BME280;40708;50.364;7.550;2023-06-22T06:32:04;100509.09;;;27.80;100.00
54808;BME280;40708;50.364;7.550;2023-06-22T06:34:30;100498.69;;;27.72;100.00
54808;BME280;40708;50.364;7.550;2023-06-22T06:36:55;100508.00;;;27.83;100.00
54808;BME280;40708;50.364;7.550;2023-06-22T06:39:20;100495.28;;;28.33;100.00
54808;BME280;40708;50.364;7.550;2023-06-22T06:41:46;100462.34;;;29.33;100.00
54808;BME280;40708;50.364;7.550;2023-06-22T06:44:11;100458.19;;;29.04;100.00
54808;BME280;40708;50.364;7.550;2023-06-22T06:46:36;100449.91;;;29.29;100.00
54808;BME280;40708;50.364;7.550;2023-06-22T06:49:03;100435.94;;;29.90;100.00
54808;BME280;40708;50.364;7.550;2023-06-22T06:51:28;100435.22;;;29.88;100.00
54808;BME280;40708;50.364;7.550;2023-06-22T06:53:53;100415.84;;;30.14;100.00
54808;BME280;40708;50.364;7.550;2023-06-22T06:56:19;100416.16;;;29.41;100.00
54808;BME280;40708;50.364;7.550;2023-06-22T06:58:44;100423.56;;;29.28;100.00
54808;BME280;40708;50.364;7.550;2023-06-22T07:01:10;100436.41;;;29.38;100.00
54808;BME280;40708;50.364;7.550;2023-06-22T07:03:36;100431.38;;;29.56;100.00
54808;BME280;40708;50.364;7.550;2023-06-22T07:06:01;100423.88;;;29.47;100.00
54808;BME280;40708;50.364;7.550;2023-06-22T07:08:26;100427.91;;;29.54;100.00
54808;BME280;40708;50.364;7.550;2023-06-22T07:10:53;100415.44;;;29.85;100.00
54808;BME280;40708;50.364;7.550;2023-06-22T07:13:18;100415.31;;;29.86;100.00
54808;BME280;40708;50.364;7.550;2023-06-22T07:15:43;100408.59;;;29.90;100.00
54808;BME280;40708;50.364;7.550;2023-06-22T07:18:09;100400.91;;;30.18;100.00
54808;BME280;40708;50.364;7.550;2023-06-22T07:20:34;100383.69;;;31.35;100.00
54808;BME280;40708;50.364;7.550;2023-06-22T07:23:00;100377.34;;;31.75;100.00
54808;BME280;40708;50.364;7.550;2023-06-22T07:25:25;100361.94;;;32.45;100.00
54808;BME280;40708;50.364;7.550;2023-06-22T07:27:58;100369.34;;;32.54;100.00
54808;BME280;40708;50.364;7.550;2023-06-22T07:30:24;100372.81;;;32.16;100.00
54808;BME280;40708;50.364;7.550;2023-06-22T07:32:50;100366.63;;;31.10;100.00
54808;BME280;40708;50.364;7.550;2023-06-22T07:35:15;100359.81;;;31.25;100.00
54808;BME280;40708;50.364;7.550;2023-06-22T07:37:41;100347.28;;;31.64;100.00
54808;BME280;40708;50.364;7.550;2023-06-22T07:40:07;100349.41;;;31.61;100.00
54808;BME280;40708;50.364;7.550;2023-06-22T07:42:33;100350.38;;;31.80;100.00
54808;BME280;40708;50.364;7.550;2023-06-22T07:44:58;100352.44;;;31.88;100.00
54808;BME280;40708;50.364;7.550;2023-06-22T07:47:24;100344.91;;;31.80;100.00
54808;BME280;40708;50.364;7.550;2023-06-22T07:49:51;100346.97;;;32.18;100.00
54808;BME280;40708;50.364;7.550;2023-06-22T07:52:17;100341.72;;;32.06;100.00
54808;BME280;40708;50.364;7.550;2023-06-22T07:54:42;100342.06;;;32.12;100.00
54808;BME280;40708;50.364;7.550;2023-06-22T07:57:07;100330.31;;;32.10;100.00
54808;BME280;40708;50.364;7.550;2023-06-22T07:59:33;100329.28;;;32.42;100.00
54808;BME280;40708;50.364;7.550;2023-06-22T08:01:58;100305.94;;;33.05;100.00
54808;BME280;40708;50.364;7.550;2023-06-22T08:04:23;100301.16;;;32.87;100.00
54808;BME280;40708;50.364;7.550;2023-06-22T08:06:49;100291.91;;;32.79;100.00
54808;BME280;40708;50.364;7.550;2023-06-22T08:09:14;100286.69;;;33.24;100.00
54808;BME280;40708;50.364;7.550;2023-06-22T08:11:40;100290.38;;;33.51;100.00
54808;BME280;40708;50.364;7.550;2023-06-22T08:14:05;100279.22;;;33.53;100.00
54808;BME280;40708;50.364;7.550;2023-06-22T08:16:30;100267.66;;;33.49;100.00
54808;BME280;40708;50.364;7.550;2023-06-22T08:18:56;100267.78;;;33.67;100.00
54808;BME280;40708;50.364;7.550;2023-06-22T08:21:21;100264.00;;;33.95;100.00
54808;BME280;40708;50.364;7.550;2023-06-22T08:23:47;100265.31;;;34.28;100.00
54808;BME280;40708;50.364;7.550;2023-06-22T08:26:14;100271.81;;;33.73;100.00
54808;BME280;40708;50.364;7.550;2023-06-22T08:28:39;100267.75;;;33.21;100.00
54808;BME280;40708;50.364;7.550;2023-06-22T08:31:05;100273.53;;;32.79;100.00
54808;BME280;40708;50.364;7.550;2023-06-22T08:33:30;100268.19;;;33.07;100.00
54808;BME280;40708;50.364;7.550;2023-06-22T08:35:57;100259.91;;;32.97;100.00
54808;BME280;40708;50.364;7.550;2023-06-22T08:38:23;100257.72;;;32.43;100.00
54808;BME280;40708;50.364;7.550;2023-06-22T08:40:48;100258.47;;;32.45;100.00
54808;BME280;40708;50.364;7.550;2023-06-22T08:43:14;100268.84;;;32.51;100.00
54808;BME280;40708;50.364;7.550;2023-06-22T08:45:39;100257.16;;;32.49;100.00
54808;BME280;40708;50.364;7.550;2023-06-22T08:48:04;100250.63;;;32.12;100.00
54808;BME280;40708;50.364;7.550;2023-06-22T08:50:30;100247.09;;;32.00;100.00
54808;BME280;40708;50.364;7.550;2023-06-22T08:52:55;100246.47;;;31.97;100.00
54808;BME280;40708;50.364;7.550;2023-06-22T08:55:20;100227.38;;;32.25;100.00
54808;BME280;40708;50.364;7.550;2023-06-22T08:57:46;100233.50;;;31.59;100.00
54808;BME280;40708;50.364;7.550;2023-06-22T09:00:11;100241.00;;;31.97;100.00
54808;BME280;40708;50.364;7.550;2023-06-22T09:02:45;100231.41;;;32.12;100.00
54808;BME280;40708;50.364;7.550;2023-06-22T09:05:10;100235.78;;;32.91;100.00
54808;BME280;40708;50.364;7.550;2023-06-22T09:07:36;100217.59;;;32.61;100.00
54808;BME280;40708;50.364;7.550;2023-06-22T09:10:01;100216.31;;;32.56;100.00
54808;BME280;40708;50.364;7.550;2023-06-22T09:12:27;100202.69;;;32.45;100.00
54808;BME280;40708;50.364;7.550;2023-06-22T09:14:55;100187.69;;;32.58;100.00
54808;BME280;40708;50.364;7.550;2023-06-22T09:17:21;100180.56;;;32.36;100.00
54808;BME280;40708;50.364;7.550;2023-06-22T09:19:47;100171.28;;;32.37;100.00
54808;BME280;40708;50.364;7.550;2023-06-22T09:22:12;100173.19;;;32.66;100.00
54808;BME280;40708;50.364;7.550;2023-06-22T09:24:38;100176.78;;;32.37;100.00
54808;BME280;40708;50.364;7.550;2023-06-22T09:27:03;100166.25;;;32.52;100.00
54808;BME280;40708;50.364;7.550;2023-06-22T09:29:28;100166.25;;;32.04;100.00
54808;BME280;40708;50.364;7.550;2023-06-22T09:31:53;100151.59;;;31.94;100.00
54808;BME280;40708;50.364;7.550;2023-06-22T09:34:19;100151.16;;;31.89;100.00
54808;BME280;40708;50.364;7.550;2023-06-22T09:36:48;100147.59;;;31.49;100.00
54808;BME280;40708;50.364;7.550;2023-06-22T09:39:13;100152.03;;;30.89;100.00
54808;BME280;40708;50.364;7.550;2023-06-22T09:41:39;100158.84;;;30.22;100.00
54808;BME280;40708;50.364;7.550;2023-06-22T09:44:04;100152.63;;;30.72;100.00
54808;BME280;40708;50.364;7.550;2023-06-22T09:46:29;100151.31;;;30.87;100.00
54808;BME280;40708;50.364;7.550;2023-06-22T09:48:54;100138.75;;;30.85;100.00
54808;BME280;40708;50.364;7.550;2023-06-22T09:51:20;100133.94;;;30.56;100.00
54808;BME280;40708;50.364;7.550;2023-06-22T09:53:47;100139.06;;;30.50;100.00
54808;BME280;40708;50.364;7.550;2023-06-22T09:56:12;100134.38;;;30.09;100.00
54808;BME280;40708;50.364;7.550;2023-06-22T09:58:43;100146.56;;;29.73;100.00
54808;BME280;40708;50.364;7.550;2023-06-22T10:01:09;100150.66;;;29.68;100.00
54808;BME280;40708;50.364;7.550;2023-06-22T10:03:35;100143.50;;;29.33;100.00
54808;BME280;40708;50.364;7.550;2023-06-22T10:06:00;100145.50;;;29.31;100.00
54808;BME280;40708;50.364;7.550;2023-06-22T10:08:26;100143.47;;;29.11;100.00
54808;BME280;40708;50.364;7.550;2023-06-22T10:10:51;100148.91;;;29.00;100.00
54808;BME280;40708;50.364;7.550;2023-06-22T10:13:16;100169.41;;;29.06;100.00
54808;BME280;40708;50.364;7.550;2023-06-22T10:15:42;100191.25;;;29.06;100.00
54808;BME280;40708;50.364;7.550;2023-06-22T10:18:07;100224.03;;;29.06;100.00
54808;BME280;40708;50.364;7.550;2023-06-22T10:20:33;100258.03;;;28.90;100.00
54808;BME280;40708;50.364;7.550;2023-06-22T10:22:58;100282.66;;;28.67;100.00
54808;BME280;40708;50.364;7.550;2023-06-22T10:25:23;100287.91;;;28.81;100.00
54808;BME280;40708;50.364;7.550;2023-06-22T10:27:49;100292.09;;;28.50;100.00
54808;BME280;40708;50.364;7.550;2023-06-22T10:30:14;100316.88;;;28.23;100.00
54808;BME280;40708;50.364;7.550;2023-06-22T10:32:41;100396.88;;;27.99;100.00
54808;BME280;40708;50.364;7.550;2023-06-22T10:35:08;100467.06;;;27.70;100.00
54808;BME280;40708;50.364;7.550;2023-06-22T10:37:35;100516.13;;;27.31;100.00
54808;BME280;40708;50.364;7.550;2023-06-22T10:40:00;100633.50;;;26.99;100.00
54808;BME280;40708;50.364;7.550;2023-06-22T10:42:26;100638.63;;;26.61;100.00
54808;BME280;40708;50.364;7.550;2023-06-22T10:44:51;100859.22;;;26.58;100.00
54808;BME280;40708;50.364;7.550;2023-06-22T10:47:16;100879.59;;;26.67;100.00
54808;BME280;40708;50.364;7.550;2023-06-22T10:49:42;100903.25;;;27.12;100.00
54808;BME280;40708;50.364;7.550;2023-06-22T10:52:08;100822.44;;;27.41;100.00
54808;BME280;40708;50.364;7.550;2023-06-22T10:54:34;100849.28;;;27.75;100.00
54808;BME280;40708;50.364;7.550;2023-06-22T10:57:00;100752.00;;;27.90;100.00
54808;BME280;40708;50.364;7.550;2023-06-22T10:59:25;100757.19;;;28.21;100.00
54808;BME280;40708;50.364;7.550;2023-06-22T11:01:53;100608.63;;;28.64;100.00
54808;BME280;40708;50.364;7.550;2023-06-22T11:04:18;100490.03;;;28.92;100.00
54808;BME280;40708;50.364;7.550;2023-06-22T11:06:43;100491.69;;;29.18;100.00
54808;BME280;40708;50.364;7.550;2023-06-22T11:09:09;100456.50;;;29.14;100.00
54808;BME280;40708;50.364;7.550;2023-06-22T11:11:34;100466.47;;;29.38;100.00
54808;BME280;40708;50.364;7.550;2023-06-22T11:13:59;100373.91;;;29.80;100.00
54808;BME280;40708;50.364;7.550;2023-06-22T11:16:24;100370.94;;;30.16;100.00
54808;BME280;40708;50.364;7.550;2023-06-22T11:18:50;100319.81;;;30.17;100.00
54808;BME280;40708;50.364;7.550;2023-06-22T11:21:15;100296.78;;;30.30;100.00
54808;BME280;40708;50.364;7.550;2023-06-22T11:23:42;100265.81;;;30.41;100.00
54808;BME280;40708;50.364;7.550;2023-06-22T11:26:07;100256.00;;;30.59;100.00
54808;BME280;40708;50.364;7.550;2023-06-22T11:28:32;100237.19;;;30.97;100.00
54808;BME280;40708;50.364;7.550;2023-06-22T11:30:58;100188.97;;;31.46;100.00
54808;BME280;40708;50.364;7.550;2023-06-22T11:33:23;100204.59;;;30.62;100.00
54808;BME280;40708;50.364;7.550;2023-06-22T11:35:49;100211.63;;;30.44;100.00
54808;BME280;40708;50.364;7.550;2023-06-22T11:38:14;100191.69;;;30.74;100.00
54808;BME280;40708;50.364;7.550;2023-06-22T11:40:39;100178.53;;;30.47;100.00
54808;BME280;40708;50.364;7.550;2023-06-22T11:43:05;100174.50;;;30.62;100.00
54808;BME280;40708;50.364;7.550;2023-06-22T11:45:30;100168.78;;;30.23;100.00
54808;BME280;40708;50.364;7.550;2023-06-22T11:47:55;100179.50;;;29.83;100.00
54808;BME280;40708;50.364;7.550;2023-06-22T11:50:21;100184.00;;;30.47;100.00
54808;BME280;40708;50.364;7.550;2023-06-22T11:52:46;100164.06;;;30.56;100.00
54808;BME280;40708;50.364;7.550;2023-06-22T11:55:12;100153.97;;;30.78;100.00
54808;BME280;40708;50.364;7.550;2023-06-22T11:57:38;100136.88;;;30.64;100.00
54808;BME280;40708;50.364;7.550;2023-06-22T12:00:04;100157.66;;;30.35;100.00
54808;BME280;40708;50.364;7.550;2023-06-22T12:02:41;100162.91;;;30.59;100.00
54808;BME280;40708;50.364;7.550;2023-06-22T12:05:07;100155.63;;;30.90;100.00
54808;BME280;40708;50.364;7.550;2023-06-22T12:07:33;100148.56;;;30.66;100.00
54808;BME280;40708;50.364;7.550;2023-06-22T12:09:58;100159.00;;;30.52;100.00
54808;BME280;40708;50.364;7.550;2023-06-22T12:12:24;100134.41;;;31.03;100.00
54808;BME280;40708;50.364;7.550;2023-06-22T12:14:49;100154.56;;;30.29;100.00
54808;BME280;40708;50.364;7.550;2023-06-22T12:17:14;100157.16;;;30.41;100.00
54808;BME280;40708;50.364;7.550;2023-06-22T12:19:40;100122.47;;;31.13;100.00
54808;BME280;40708;50.364;7.550;2023-06-22T12:22:05;100129.59;;;30.75;100.00
54808;BME280;40708;50.364;7.550;2023-06-22T12:24:30;100124.59;;;31.00;100.00
54808;BME280;40708;50.364;7.550;2023-06-22T12:26:55;100102.66;;;31.00;100.00
54808;BME280;40708;50.364;7.550;2023-06-22T12:29:21;100132.28;;;30.65;100.00
54808;BME280;40708;50.364;7.550;2023-06-22T12:31:46;100090.75;;;31.11;100.00
54808;BME280;40708;50.364;7.550;2023-06-22T12:34:11;100094.81;;;30.65;100.00
54808;BME280;40708;50.364;7.550;2023-06-22T12:36:36;100091.53;;;30.92;100.00
54808;BME280;40708;50.364;7.550;2023-06-22T12:39:02;100089.13;;;30.88;100.00
54808;BME280;40708;50.364;7.550;2023-06-22T12:41:27;100064.22;;;31.21;100.00